Impacts TAF Board
For situational awareness. Not to be used for flight planning purposes.
IDs:

KPOE - Fort Polk(AAF), LA, US

Issued at 1600 UTC 23 Sep 2020
Updated at 1719 UTC 23 Sep 2020
Potential Impact None Slight Moderate High
Time1713Z 23/18Z 23/19Z 23/20Z 23/21Z 23/22Z 23/23Z 24/00Z 24/01Z 24/02Z 24/03Z 24/04Z 24/05Z 24/06Z>>
Type OBS PRVL
  [TEMP]  
PRVL
  [TEMP]  
PRVL
  [TEMP]  
PRVL
  [TEMP]  
PRVL
  [TEMP]  
PRVL
  [TEMP]  
PRVL PRVL PRVL PRVL PRVL PRVL PRVL
VIS 1 1.49
  [1.99]  
1.49
  [1.99]  
1.49
  [1.99]  
1.49
  [1.99]  
1.49
  [1.99]  
1.49
  [1.99]  
1.49 >6 >6 >6 >6 >6 4.97
CIG 4 6
  [5]  
6
  [5]  
6
  [5]  
6
  [5]  
6
  [5]  
6
  [5]  
6 6 6 6 6 6 6
Cover OVC OVC
  [OVC]  
OVC
  [OVC]  
OVC
  [OVC]  
OVC
  [OVC]  
OVC
  [OVC]  
OVC
  [OVC]  
OVC OVC OVC OVC OVC OVC OVC
FltCat LIFR IFR
  [IFR]  
IFR
  [IFR]  
IFR
  [IFR]  
IFR
  [IFR]  
IFR
  [IFR]  
IFR
  [IFR]  
IFR IFR IFR IFR IFR IFR IFR
WX +RA BR RA
  [TSRA]  
RA
  [TSRA]  
RA
  [TSRA]  
RA
  [TSRA]  
RA
  [TSRA]  
RA
  [TSRA]  
RA NSW NSW NSW NSW NSW BR
WDir 40 80
[90]
80
[90]
80
[90]
80
[90]
80
[90]
80
[90]
80 40 40 40 40 40 350
WSpd 8 8
  [20]  
8
  [20]  
8
  [20]  
8
  [20]  
8
  [20]  
8
  [20]  
8 10 10 10 10 10 9
WGst -- --
  [25]  
--
  [25]  
--
  [25]  
--
  [25]  
--
  [25]  
--
  [25]  
-- -- -- -- -- -- --
Raw TAF
TAF KPOE 231600Z 2316/2422 08008KT 2400 RA OVC006 QNH2970INS
  TEMPO 2318/2324 09020G25KT 3200 TSRA OVC005CB
  BECMG 2401/2402 04010KT 9999 NSW OVC006 QNH2972INS
  BECMG 2406/2407 35009KT 8000 BR OVC006 QNH2972INS
  BECMG 2414/2415 34012G18KT 9999 NSW OVC012 QNH2981INS TX24/2319Z TN19/2413Z


Raw METAR
KPOE 231713Z AUTO 04008KT 1SM +RA BR BKN004 OVC029 22/22 A2979 RMK AO2 VIS 1V1 1/2 SLP087 RVRNO
KPOE 231658Z 06006G15KT 1 3/8SM RA BR BKN005 OVC028 22/22 A2979 RMK AO2A SLP087 P0083
KPOE 231642Z AUTO 05009KT 1/2SM +RA FG BKN004 OVC025 22/22 A2980 RMK AO2 SLP091 RVRNO
KPOE 231612Z AUTO 03010G15KT 7/8SM +RA BR M 22/22 A2981 RMK AO2 SLP094 RVRNO $
KPOE 231558Z 06007KT 1 3/8SM +RA BR OVC005 22/22 A2981 RMK AO2A SLP094 P0088 $
KPOE 231545Z COR 04009KT 1 1/2SM +RA OVC005 22/22 A2981 RMK AO2A SLP094 $ COR 1553
KPOE 231544Z AUTO 05009KT M M M 22/22 A2981 RMK AO2 RAE44 SLP094 $
KPOE 231528Z AUTO 08008G18KT 1/2SM +RA FG SCT005 OVC028 23/22 A2982 RMK AO2 CIG 022V028 SLP097 RVRNO
KPOE 231458Z AUTO 06006KT 1/2SM +RA FG BKN005 OVC016 23/22 A2983 RMK AO2 VIS 1/2V1 1/2 BKN V OVC SLP101 P0057 60099 T02260224 50000 RVRNO
KPOE 231453Z AUTO 06007KT 7/8SM +RA BR BKN005 OVC017 23/22 A2983 RMK AO2 VIS 7/8V2 LTG DSNT S BKN V OVC SLP101 RVRNO
KPOE 231443Z AUTO 06005KT 1 3/4SM RA BR OVC005 23/22 A2983 RMK AO2 VIS 7/8V1 3/4 LTG DSNT S OVC V BKN SLP101
KPOE 231433Z AUTO 05008KT 3/4SM +RA BR BKN005 OVC021 23/22 A2982 RMK AO2 BKN V OVC SLP097 RVRNO

METAR Board
For situational awareness. Not to be used for flight planning purposes.